createdAt,value
2023-03-14T00:01:35.490Z,19.10
2023-03-14T00:04:05.563Z,27.70
2023-03-14T00:06:33.577Z,21.70
2023-03-14T00:09:01.772Z,20.20
2023-03-14T00:11:30.741Z,23.90
2023-03-14T00:13:58.691Z,27.40
2023-03-14T00:16:26.935Z,31.30
2023-03-14T00:18:54.963Z,30.00
2023-03-14T00:21:22.980Z,26.50
2023-03-14T00:23:51.007Z,32.60
2023-03-14T00:26:20.438Z,29.40
2023-03-14T00:28:48.835Z,24.50
2023-03-14T00:31:18.749Z,38.60
2023-03-14T00:33:46.863Z,32.10
2023-03-14T00:36:16.607Z,29.80
2023-03-14T00:38:47.434Z,32.90
2023-03-14T00:41:16.867Z,25.50
2023-03-14T00:43:44.874Z,28.10
2023-03-14T00:46:13.457Z,23.80
2023-03-14T00:48:41.705Z,26.20
2023-03-14T00:51:09.900Z,34.00
2023-03-14T00:53:38.532Z,25.70
2023-03-14T00:56:08.447Z,27.70
2023-03-14T00:58:36.512Z,26.60
2023-03-14T01:01:13.365Z,32.30
2023-03-14T01:03:41.301Z,30.10
2023-03-14T01:06:13.800Z,33.40
2023-03-14T01:08:43.964Z,30.10
2023-03-14T01:11:26.118Z,25.60
2023-03-14T01:13:54.259Z,28.90
2023-03-14T01:16:23.531Z,27.40
2023-03-14T01:18:51.722Z,30.00
2023-03-14T01:21:24.452Z,28.70
2023-03-14T01:23:52.977Z,26.00
2023-03-14T01:26:23.660Z,21.20
2023-03-14T01:28:52.746Z,29.00
2023-03-14T01:31:20.991Z,30.80
2023-03-14T01:33:49.205Z,21.50
2023-03-14T01:36:17.515Z,27.20
2023-03-14T01:38:45.870Z,28.30
2023-03-14T01:41:25.437Z,25.80
2023-03-14T01:43:54.152Z,21.60
2023-03-14T01:46:32.054Z,28.10
2023-03-14T01:49:05.259Z,21.10
2023-03-14T01:51:41.918Z,24.20
2023-03-14T01:54:26.222Z,26.80
2023-03-14T01:57:01.295Z,26.20
2023-03-14T01:59:30.333Z,24.00
2023-03-14T02:01:58.630Z,33.90
2023-03-14T02:04:29.644Z,25.20
2023-03-14T02:07:03.113Z,24.00
2023-03-14T02:09:34.786Z,22.60
2023-03-14T02:12:02.916Z,32.80
2023-03-14T02:14:52.864Z,24.40
2023-03-14T02:17:32.092Z,22.40
2023-03-14T02:20:54.085Z,22.90
2023-03-14T02:23:28.261Z,37.80
2023-03-14T02:26:04.612Z,22.90
2023-03-14T02:28:32.589Z,20.30
2023-03-14T02:31:02.658Z,25.10
2023-03-14T02:33:33.773Z,22.30
2023-03-14T02:36:03.490Z,28.30
2023-03-14T02:38:49.194Z,24.60
2023-03-14T02:41:17.468Z,28.70
2023-03-14T02:43:50.307Z,20.30
2023-03-14T02:46:19.776Z,24.40
2023-03-14T02:48:52.500Z,24.50
2023-03-14T02:51:21.378Z,26.90
2023-03-14T02:53:49.528Z,18.10
2023-03-14T02:56:17.769Z,18.00
2023-03-14T02:58:46.049Z,20.10
2023-03-14T03:01:22.658Z,21.30
2023-03-14T03:03:50.744Z,20.00
2023-03-14T03:06:21.138Z,16.60
2023-03-14T03:08:49.136Z,20.20
2023-03-14T03:11:17.508Z,17.30
2023-03-14T03:13:45.650Z,20.70
2023-03-14T03:16:16.235Z,20.00
2023-03-14T03:18:44.339Z,20.80
2023-03-14T03:21:12.469Z,16.40
2023-03-14T03:23:41.049Z,17.00
2023-03-14T03:26:10.626Z,33.70
2023-03-14T03:28:38.793Z,23.30
2023-03-14T03:31:10.948Z,20.00
2023-03-14T03:33:39.437Z,22.90
2023-03-14T03:36:08.733Z,23.50
2023-03-14T03:38:38.266Z,20.10
2023-03-14T03:41:07.442Z,18.60
2023-03-14T03:43:35.759Z,21.20
2023-03-14T03:46:06.173Z,22.10
2023-03-14T03:48:34.752Z,23.90
2023-03-14T03:51:05.779Z,19.70
2023-03-14T03:53:34.318Z,29.20
2023-03-14T03:56:11.176Z,24.80
2023-03-14T03:58:39.999Z,22.70
2023-03-14T04:01:08.882Z,30.90
2023-03-14T04:03:39.982Z,28.20
2023-03-14T04:06:12.793Z,23.60
2023-03-14T04:08:42.482Z,25.20
2023-03-14T04:11:13.506Z,21.70
2023-03-14T04:14:04.245Z,20.10
2023-03-14T04:16:34.934Z,24.10
2023-03-14T04:19:09.592Z,17.20
2023-03-14T04:21:37.873Z,24.50
2023-03-14T04:24:06.187Z,23.00
2023-03-14T04:26:35.872Z,24.10
2023-03-14T04:29:03.930Z,21.90
2023-03-14T04:31:32.425Z,23.00
2023-03-14T04:34:00.501Z,21.60
2023-03-14T04:36:37.250Z,26.10
2023-03-14T04:39:09.695Z,20.80
2023-03-14T04:41:40.249Z,25.40
2023-03-14T04:44:09.358Z,23.40
2023-03-14T04:46:37.954Z,31.00
2023-03-14T04:49:08.031Z,33.80
2023-03-14T04:51:36.228Z,28.60
2023-03-14T04:54:04.296Z,22.10
2023-03-14T04:56:32.358Z,21.30
2023-03-14T04:59:02.069Z,23.10
2023-03-14T05:01:31.125Z,24.70
2023-03-14T05:04:26.366Z,16.70
2023-03-14T05:07:17.384Z,27.20
2023-03-14T05:09:56.949Z,22.30
2023-03-14T05:12:36.040Z,30.20
2023-03-14T05:15:17.206Z,32.00
2023-03-14T05:17:59.427Z,25.20
2023-03-14T05:20:52.217Z,24.50
2023-03-14T05:23:38.963Z,26.60
2023-03-14T05:26:17.724Z,26.70
2023-03-14T05:28:59.337Z,28.90
2023-03-14T05:31:56.318Z,21.50
2023-03-14T05:34:38.417Z,25.60
2023-03-14T05:37:15.939Z,23.30
2023-03-14T05:40:01.250Z,20.40
2023-03-14T05:42:47.748Z,22.90
2023-03-14T05:45:47.937Z,17.20
2023-03-14T05:48:34.133Z,22.40
2023-03-14T05:51:20.830Z,21.90
2023-03-14T05:53:51.396Z,20.80
2023-03-14T05:56:38.005Z,24.00
2023-03-14T05:59:06.016Z,19.10
2023-03-14T06:01:46.575Z,26.00
2023-03-14T06:04:17.336Z,18.00
2023-03-14T06:06:49.376Z,17.10
2023-03-14T06:09:20.835Z,21.50
2023-03-14T06:11:48.905Z,20.00
2023-03-14T06:14:16.928Z,25.30
2023-03-14T06:16:49.113Z,17.10
2023-03-14T06:19:18.615Z,23.30
2023-03-14T06:21:47.312Z,20.80
2023-03-14T06:24:15.668Z,24.90
2023-03-14T06:26:47.078Z,18.80
2023-03-14T06:29:16.403Z,24.40
2023-03-14T06:31:44.891Z,27.50
2023-03-14T06:34:16.929Z,18.70
2023-03-14T06:36:45.250Z,29.40
2023-03-14T06:39:13.388Z,20.10
2023-03-14T06:41:47.229Z,23.80
2023-03-14T06:44:15.386Z,26.60
2023-03-14T06:46:43.498Z,23.70
2023-03-14T06:49:11.621Z,15.60
2023-03-14T06:51:39.630Z,24.30
2023-03-14T06:54:08.343Z,22.70
2023-03-14T06:56:36.884Z,23.90
2023-03-14T06:59:04.974Z,24.20
2023-03-14T07:01:33.976Z,18.60
2023-03-14T07:04:10.616Z,26.80
2023-03-14T07:06:45.188Z,27.90
2023-03-14T07:09:13.484Z,22.20
2023-03-14T07:11:44.673Z,27.90
2023-03-14T07:14:13.125Z,17.20
2023-03-14T07:16:51.459Z,26.90
2023-03-14T07:19:22.644Z,18.10
2023-03-14T07:21:50.975Z,25.90
2023-03-14T07:24:22.719Z,30.40
2023-03-14T07:26:51.015Z,24.50
2023-03-14T07:29:19.232Z,25.70
2023-03-14T07:31:47.676Z,22.20
2023-03-14T07:34:18.481Z,22.60
2023-03-14T07:36:46.750Z,25.20
2023-03-14T07:39:14.890Z,21.50
2023-03-14T07:41:55.633Z,20.80
2023-03-14T07:44:42.291Z,21.20
2023-03-14T07:47:17.853Z,22.10
2023-03-14T07:49:49.066Z,21.30
2023-03-14T07:52:17.436Z,23.50
2023-03-14T07:54:45.893Z,19.20
2023-03-14T07:57:14.165Z,14.80
2023-03-14T07:59:42.767Z,20.40
2023-03-14T08:02:14.166Z,14.70
2023-03-14T08:04:42.463Z,13.70
2023-03-14T08:07:10.571Z,14.80
2023-03-14T08:09:38.917Z,15.70
2023-03-14T08:12:07.378Z,14.90
2023-03-14T08:14:35.428Z,22.10
2023-03-14T08:17:03.655Z,19.10
2023-03-14T08:19:31.753Z,16.40
2023-03-14T08:21:59.811Z,18.60
2023-03-14T08:24:27.910Z,17.80
2023-03-14T08:26:55.933Z,27.00
2023-03-14T08:29:24.048Z,19.90
2023-03-14T08:31:52.044Z,21.20
2023-03-14T08:34:20.141Z,18.80
2023-03-14T08:36:48.249Z,20.50
2023-03-14T08:39:16.325Z,15.30
2023-03-14T08:41:45.559Z,18.10
2023-03-14T08:44:13.813Z,13.50
2023-03-14T08:46:41.967Z,16.10
2023-03-14T08:49:10.343Z,16.40
2023-03-14T08:51:38.345Z,18.80
2023-03-14T08:54:06.478Z,14.80
2023-03-14T08:56:34.651Z,14.00
2023-03-14T08:59:02.687Z,16.20
2023-03-14T09:01:31.310Z,16.00
2023-03-14T09:04:02.509Z,14.50
2023-03-14T09:06:30.618Z,13.90
2023-03-14T09:08:58.703Z,14.90
2023-03-14T09:11:26.822Z,18.90
2023-03-14T09:13:57.749Z,14.70
2023-03-14T09:16:25.878Z,22.10
2023-03-14T09:19:01.040Z,20.20
2023-03-14T09:21:29.219Z,16.80
2023-03-14T09:23:57.435Z,21.00
2023-03-14T09:26:25.398Z,12.10
2023-03-14T09:28:53.360Z,13.80
2023-03-14T09:31:21.658Z,19.50
2023-03-14T09:33:49.963Z,16.20
2023-03-14T09:36:17.988Z,17.10
2023-03-14T09:38:46.019Z,19.20
2023-03-14T09:41:22.844Z,18.40
2023-03-14T09:43:52.171Z,15.70
2023-03-14T09:46:20.283Z,11.60
2023-03-14T09:48:48.381Z,9.70
2023-03-14T09:51:18.346Z,8.60
2023-03-14T09:53:47.779Z,10.00
2023-03-14T09:56:36.160Z,11.10
2023-03-14T09:59:04.840Z,7.10
2023-03-14T10:01:33.923Z,8.70
2023-03-14T10:04:04.043Z,7.70
2023-03-14T10:06:32.274Z,8.80
2023-03-14T10:09:00.507Z,10.80
2023-03-14T10:11:28.868Z,9.00
2023-03-14T10:14:03.635Z,10.50
2023-03-14T10:16:33.942Z,8.70
2023-03-14T10:19:07.462Z,8.40
2023-03-14T10:21:40.578Z,13.40
2023-03-14T10:24:12.245Z,9.20
2023-03-14T10:26:40.337Z,8.70
2023-03-14T10:29:12.609Z,8.30
2023-03-14T10:31:54.905Z,9.40
2023-03-14T10:34:28.443Z,9.20
2023-03-14T10:37:04.662Z,9.10
2023-03-14T10:39:33.072Z,7.70
2023-03-14T10:42:15.480Z,7.90
2023-03-14T10:44:43.643Z,9.70
2023-03-14T10:47:20.778Z,8.90
2023-03-14T10:49:49.030Z,10.10
2023-03-14T10:52:20.003Z,9.10
2023-03-14T10:54:48.511Z,9.90
2023-03-14T10:57:16.655Z,8.30
2023-03-14T10:59:45.248Z,8.70
2023-03-14T11:02:45.106Z,7.60
2023-03-14T11:05:33.197Z,6.10
2023-03-14T11:08:10.023Z,7.70
2023-03-14T11:10:41.804Z,7.30
2023-03-14T11:13:12.874Z,6.70
2023-03-14T11:15:43.679Z,6.30
2023-03-14T11:18:17.935Z,7.40
2023-03-14T11:20:58.874Z,7.30
2023-03-14T11:23:32.927Z,7.40
2023-03-14T11:26:25.566Z,8.10
2023-03-14T11:29:21.699Z,12.10
2023-03-14T11:31:49.680Z,6.30
2023-03-14T11:34:18.851Z,7.30
2023-03-14T11:37:04.865Z,10.80
2023-03-14T11:39:39.978Z,6.50
2023-03-14T11:42:12.244Z,5.60
2023-03-14T11:44:43.149Z,5.50
2023-03-14T11:47:24.866Z,6.60
2023-03-14T11:49:58.080Z,7.00
2023-03-14T11:52:35.348Z,6.30
2023-03-14T11:55:16.775Z,7.90
2023-03-14T11:57:44.661Z,4.00
2023-03-14T12:00:23.156Z,6.50
2023-03-14T12:03:06.651Z,8.50
2023-03-14T12:05:47.382Z,7.70
2023-03-14T12:08:21.089Z,6.70
2023-03-14T12:10:55.138Z,14.40
2023-03-14T12:13:23.114Z,6.30
2023-03-14T12:16:01.262Z,6.10
2023-03-14T12:18:33.173Z,5.90
2023-03-14T12:21:03.098Z,8.60
2023-03-14T12:23:46.862Z,6.40
2023-03-14T12:26:22.991Z,11.00
2023-03-14T12:28:54.140Z,5.60
2023-03-14T12:31:33.881Z,4.10
2023-03-14T12:34:11.306Z,7.00
2023-03-14T12:36:49.670Z,4.50
2023-03-14T12:39:20.912Z,5.90
2023-03-14T12:42:03.114Z,4.00
2023-03-14T12:44:31.084Z,3.40
2023-03-14T12:47:21.570Z,4.90
2023-03-14T12:49:51.164Z,6.10
2023-03-14T12:52:37.554Z,3.40
2023-03-14T12:55:15.879Z,4.40
2023-03-14T12:57:46.783Z,4.00
2023-03-14T13:00:21.044Z,5.30
2023-03-14T13:02:49.640Z,5.90
2023-03-14T13:05:22.550Z,3.90
2023-03-14T13:08:01.297Z,7.10
2023-03-14T13:10:37.221Z,6.40
2023-03-14T13:13:23.467Z,3.80
2023-03-14T13:15:58.094Z,5.40
2023-03-14T13:18:42.718Z,3.40
2023-03-14T13:21:18.589Z,4.00
2023-03-14T13:23:55.870Z,4.20
2023-03-14T13:26:24.867Z,6.40
2023-03-14T13:28:53.031Z,2.90
2023-03-14T13:31:25.875Z,3.90
2023-03-14T13:34:01.174Z,4.30
2023-03-14T13:36:29.454Z,3.10
2023-03-14T13:38:59.346Z,3.50
2023-03-14T13:41:27.530Z,4.90
2023-03-14T13:44:08.019Z,4.90
2023-03-14T13:46:36.519Z,5.30
2023-03-14T13:49:06.450Z,5.70
2023-03-14T13:51:34.994Z,5.60
2023-03-14T13:54:04.246Z,7.00
2023-03-14T13:56:33.209Z,6.20
2023-03-14T13:59:01.375Z,4.90
2023-03-14T14:01:32.478Z,4.50
2023-03-14T14:04:09.911Z,5.80
2023-03-14T14:06:45.871Z,8.80
2023-03-14T14:09:20.466Z,8.00
2023-03-14T14:12:11.274Z,8.00
2023-03-14T14:15:00.449Z,6.20
2023-03-14T14:17:55.991Z,6.50
2023-03-14T14:20:32.776Z,7.50
2023-03-14T14:23:04.599Z,7.10
2023-03-14T14:25:32.910Z,7.80
2023-03-14T14:28:35.288Z,5.40
2023-03-14T14:31:07.713Z,6.50
2023-03-14T14:34:02.832Z,11.00
2023-03-14T14:36:32.068Z,9.10
2023-03-14T14:39:06.197Z,8.00
2023-03-14T14:41:36.499Z,7.60
2023-03-14T14:44:05.007Z,5.70
2023-03-14T14:46:34.380Z,7.20
2023-03-14T14:49:10.155Z,8.90
2023-03-14T14:51:43.632Z,6.10
2023-03-14T14:54:17.266Z,9.40
2023-03-14T14:56:52.861Z,6.70
2023-03-14T14:59:30.107Z,11.00
2023-03-14T15:02:02.490Z,7.60
2023-03-14T15:04:33.782Z,10.50
2023-03-14T15:07:01.881Z,6.00
2023-03-14T15:09:30.104Z,7.60
2023-03-14T15:11:58.362Z,8.20
2023-03-14T15:14:28.380Z,6.70
2023-03-14T15:16:56.477Z,9.50
2023-03-14T15:19:25.998Z,8.20
2023-03-14T15:21:54.321Z,7.40
2023-03-14T15:24:22.769Z,8.50
2023-03-14T15:26:51.460Z,11.20
2023-03-14T15:29:19.700Z,11.50
2023-03-14T15:31:47.823Z,8.90
2023-03-14T15:34:16.074Z,10.70
2023-03-14T15:36:44.124Z,9.50
2023-03-14T15:39:13.043Z,10.40
2023-03-14T15:41:41.212Z,8.30
2023-03-14T15:44:09.224Z,10.00
2023-03-14T15:46:37.153Z,10.90
2023-03-14T15:49:05.220Z,12.30
2023-03-14T15:51:33.375Z,12.20
2023-03-14T15:54:01.390Z,13.30
2023-03-14T15:56:32.176Z,12.80
2023-03-14T15:59:01.905Z,8.80
2023-03-14T16:01:30.030Z,7.80
2023-03-14T16:03:58.088Z,8.80
2023-03-14T16:06:26.089Z,8.20
2023-03-14T16:08:54.143Z,7.40
2023-03-14T16:11:23.044Z,10.70
2023-03-14T16:13:56.940Z,8.10
2023-03-14T16:16:28.326Z,8.20
2023-03-14T16:18:56.452Z,8.30
2023-03-14T16:21:24.618Z,8.10
2023-03-14T16:23:52.646Z,7.20
2023-03-14T16:26:20.991Z,8.30
2023-03-14T16:28:49.388Z,9.60
2023-03-14T16:31:18.910Z,9.50
2023-03-14T16:33:47.031Z,9.70
2023-03-14T16:36:15.637Z,8.30
2023-03-14T16:38:44.434Z,8.00
2023-03-14T16:41:17.090Z,7.90
2023-03-14T16:43:52.085Z,10.60
2023-03-14T16:46:23.233Z,11.70
2023-03-14T16:48:51.343Z,10.40
2023-03-14T16:51:19.474Z,11.00
2023-03-14T16:53:47.601Z,12.50
2023-03-14T16:56:15.756Z,11.00
2023-03-14T16:58:43.964Z,11.00
2023-03-14T17:01:13.675Z,8.90
2023-03-14T17:03:43.431Z,12.30
2023-03-14T17:06:12.862Z,10.30
2023-03-14T17:08:41.057Z,9.10
2023-03-14T17:11:09.089Z,9.60
2023-03-14T17:13:37.449Z,8.90
2023-03-14T17:16:05.824Z,9.80
2023-03-14T17:18:34.007Z,9.70
2023-03-14T17:21:02.380Z,9.30
2023-03-14T17:23:31.356Z,10.70
2023-03-14T17:25:59.419Z,15.00
2023-03-14T17:28:27.635Z,10.20
2023-03-14T17:31:15.233Z,12.20
2023-03-14T17:33:43.647Z,9.90
2023-03-14T17:36:13.823Z,10.40
2023-03-14T17:38:41.934Z,11.90
2023-03-14T17:41:11.153Z,10.20
2023-03-14T17:43:39.756Z,8.00
2023-03-14T17:46:12.147Z,9.60
2023-03-14T17:48:47.643Z,6.40
2023-03-14T17:51:15.952Z,10.30
2023-03-14T17:53:44.078Z,9.30
2023-03-14T17:56:12.781Z,7.40
2023-03-14T17:58:44.262Z,7.50
2023-03-14T18:01:14.355Z,9.00
2023-03-14T18:03:42.685Z,8.60
2023-03-14T18:06:11.527Z,11.60
2023-03-14T18:08:42.524Z,8.80
2023-03-14T18:11:11.363Z,11.20
2023-03-14T18:13:40.574Z,14.20
2023-03-14T18:16:09.205Z,12.30
2023-03-14T18:18:37.394Z,15.90
2023-03-14T18:21:06.227Z,14.70
2023-03-14T18:23:34.451Z,20.50
2023-03-14T18:26:02.510Z,20.10
2023-03-14T18:28:30.741Z,25.20
2023-03-14T18:31:09.261Z,23.20
2023-03-14T18:33:42.443Z,28.50
2023-03-14T18:36:10.907Z,23.00
2023-03-14T18:38:43.456Z,21.90
2023-03-14T18:41:13.072Z,22.10
2023-03-14T18:43:41.533Z,22.40
2023-03-14T18:46:10.802Z,22.70
2023-03-14T18:48:47.897Z,29.00
2023-03-14T18:53:44.455Z,19.80
2023-03-14T18:56:14.068Z,17.50
2023-03-14T18:58:42.634Z,22.20
2023-03-14T19:01:12.508Z,20.30
2023-03-14T19:03:40.939Z,20.90
2023-03-14T19:06:09.242Z,20.30
2023-03-14T19:08:37.613Z,21.50
2023-03-14T19:11:07.170Z,23.20
2023-03-14T19:13:35.343Z,21.70
2023-03-14T19:16:03.884Z,20.60
2023-03-14T19:18:35.051Z,19.40
2023-03-14T19:21:10.677Z,23.50
2023-03-14T19:23:39.702Z,23.70
2023-03-14T19:26:10.234Z,13.60
2023-03-14T19:28:43.874Z,21.30
2023-03-14T19:31:21.123Z,20.80
2023-03-14T19:33:50.843Z,19.60
2023-03-14T19:36:28.800Z,19.30
2023-03-14T19:38:56.995Z,21.90
2023-03-14T19:41:25.479Z,19.40
2023-03-14T19:43:54.866Z,23.60
2023-03-14T19:46:33.409Z,23.00
2023-03-14T19:49:02.312Z,22.50
2023-03-14T19:51:32.879Z,23.40
2023-03-14T19:54:05.007Z,27.60
2023-03-14T19:56:38.191Z,26.30
2023-03-14T19:59:06.738Z,29.80
2023-03-14T20:01:35.306Z,32.30
2023-03-14T20:04:04.560Z,27.30
2023-03-14T20:06:33.189Z,27.30
2023-03-14T20:09:02.362Z,26.40
2023-03-14T20:11:30.458Z,26.70
2023-03-14T20:13:58.606Z,29.10
2023-03-14T20:16:26.938Z,27.10
2023-03-14T20:18:55.075Z,29.00
2023-03-14T20:21:23.188Z,32.70
2023-03-14T20:23:51.536Z,26.40
2023-03-14T20:26:19.669Z,28.00
2023-03-14T20:28:48.282Z,29.40
2023-03-14T20:31:16.966Z,30.80
2023-03-14T20:33:51.230Z,28.00
2023-03-14T20:36:19.841Z,30.30
2023-03-14T20:38:51.547Z,28.80
2023-03-14T20:41:19.563Z,27.80
2023-03-14T20:43:47.558Z,27.10
2023-03-14T20:46:17.578Z,30.20
2023-03-14T20:48:46.958Z,30.70
2023-03-14T20:51:20.046Z,30.20
2023-03-14T20:53:51.386Z,37.70
2023-03-14T20:56:24.978Z,34.40
2023-03-14T20:58:53.036Z,31.60
2023-03-14T21:01:37.975Z,31.40
2023-03-14T21:04:15.891Z,29.20
2023-03-14T21:06:46.646Z,30.40
2023-03-14T21:09:25.193Z,29.40
2023-03-14T21:11:53.489Z,29.50
2023-03-14T21:14:28.474Z,29.50
2023-03-14T21:17:02.427Z,30.40
2023-03-14T21:19:58.209Z,35.10
2023-03-14T21:22:41.016Z,30.30
2023-03-14T21:25:09.548Z,31.50
2023-03-14T21:27:39.162Z,35.10
2023-03-14T21:30:07.919Z,30.20
2023-03-14T21:32:36.265Z,29.80
2023-03-14T21:35:04.552Z,28.80
2023-03-14T21:37:32.723Z,27.60
2023-03-14T21:40:01.032Z,24.00
2023-03-14T21:42:29.344Z,26.90
2023-03-14T21:44:57.534Z,24.00
2023-03-14T21:47:27.344Z,20.60
2023-03-14T21:49:55.427Z,15.40
2023-03-14T21:52:23.608Z,14.70
2023-03-14T21:54:51.665Z,15.70
2023-03-14T21:57:19.858Z,14.60
2023-03-14T21:59:47.972Z,12.30
2023-03-14T22:02:17.641Z,11.70
2023-03-14T22:04:45.821Z,14.80
2023-03-14T22:07:17.959Z,16.00
2023-03-14T22:09:46.673Z,13.90
2023-03-14T22:12:19.315Z,12.70
2023-03-14T22:14:47.870Z,13.60
2023-03-14T22:17:15.999Z,18.20
2023-03-14T22:19:44.138Z,20.50
2023-03-14T22:22:12.330Z,22.70
2023-03-14T22:24:40.416Z,20.10
2023-03-14T22:27:08.576Z,25.80
2023-03-14T22:29:39.377Z,32.50
2023-03-14T22:32:08.072Z,32.10
2023-03-14T22:34:36.171Z,32.00
2023-03-14T22:37:07.809Z,33.70
2023-03-14T22:39:36.215Z,34.50
2023-03-14T22:42:04.401Z,36.20
2023-03-14T22:44:33.080Z,51.90
2023-03-14T22:47:01.505Z,55.40
2023-03-14T22:49:32.799Z,39.60
2023-03-14T22:52:00.885Z,45.00
2023-03-14T22:54:28.969Z,44.00
2023-03-14T22:56:56.975Z,43.60
2023-03-14T22:59:25.142Z,41.30
2023-03-14T23:01:53.426Z,36.70
2023-03-14T23:04:21.480Z,41.20
2023-03-14T23:06:49.633Z,37.40
2023-03-14T23:09:17.672Z,38.60
2023-03-14T23:11:45.720Z,35.10
2023-03-14T23:14:13.905Z,40.90
2023-03-14T23:16:42.052Z,36.50
2023-03-14T23:19:11.102Z,42.70
2023-03-14T23:21:39.198Z,38.00
2023-03-14T23:24:07.641Z,42.90
2023-03-14T23:26:36.193Z,44.90
2023-03-14T23:29:07.104Z,38.40
2023-03-14T23:31:35.274Z,47.90
2023-03-14T23:34:03.287Z,40.30
2023-03-14T23:36:31.672Z,47.60
2023-03-14T23:38:59.737Z,47.80
2023-03-14T23:41:27.753Z,44.60
2023-03-14T23:43:56.110Z,48.30
2023-03-14T23:46:24.719Z,51.10
2023-03-14T23:48:55.098Z,51.20
2023-03-14T23:51:23.537Z,53.30
2023-03-14T23:53:51.676Z,43.40
2023-03-14T23:56:19.808Z,42.50
2023-03-14T23:58:47.963Z,42.60
